createdAt,value
2023-04-15T00:02:38.001Z,99.31
2023-04-15T00:05:41.644Z,99.08
2023-04-15T00:08:44.227Z,99.15
2023-04-15T00:11:47.341Z,99.13
2023-04-15T00:14:50.176Z,99.42
2023-04-15T00:17:53.141Z,98.78
2023-04-15T00:20:55.791Z,98.97
2023-04-15T00:23:59.108Z,98.58
2023-04-15T00:27:01.800Z,98.42
2023-04-15T00:30:26.736Z,98.16
2023-04-15T00:33:29.538Z,97.50
2023-04-15T00:36:34.030Z,97.15
2023-04-15T00:39:37.455Z,96.62
2023-04-15T00:42:41.329Z,97.30
2023-04-15T00:45:44.004Z,97.42
2023-04-15T00:48:47.509Z,97.18
2023-04-15T00:51:50.505Z,97.11
2023-04-15T00:54:54.249Z,97.73
2023-04-15T00:57:58.490Z,98.30
2023-04-15T01:01:11.504Z,98.64
2023-04-15T01:04:16.586Z,98.74
2023-04-15T01:07:19.641Z,98.71
2023-04-15T01:10:22.606Z,98.90
2023-04-15T01:13:29.948Z,99.05
2023-04-15T01:16:32.522Z,99.40
2023-04-15T01:19:37.237Z,99.01
2023-04-15T01:22:40.757Z,98.72
2023-04-15T01:25:50.299Z,98.87
2023-04-15T01:29:02.808Z,98.49
2023-04-15T01:32:05.954Z,98.16
2023-04-15T01:35:08.999Z,96.61
2023-04-15T01:38:12.008Z,96.64
2023-04-15T01:41:14.773Z,97.70
2023-04-15T01:44:17.785Z,97.87
2023-04-15T01:47:20.718Z,97.55
2023-04-15T01:50:23.776Z,97.32
2023-04-15T01:53:26.354Z,97.17
2023-04-15T01:56:29.823Z,97.00
2023-04-15T01:59:32.437Z,97.09
2023-04-15T02:02:36.124Z,97.41
2023-04-15T02:05:39.152Z,98.13
2023-04-15T02:08:42.203Z,98.44
2023-04-15T02:11:45.769Z,98.61
2023-04-15T02:14:48.350Z,98.95
2023-04-15T02:17:52.783Z,99.13
2023-04-15T02:20:57.357Z,99.05
2023-04-15T02:24:00.651Z,99.05
2023-04-15T02:27:03.713Z,98.75
2023-04-15T02:30:07.462Z,98.61
2023-04-15T02:33:10.471Z,99.04
2023-04-15T02:36:13.418Z,99.35
2023-04-15T02:39:16.956Z,99.71
2023-04-15T02:42:21.698Z,99.92
2023-04-15T02:45:27.649Z,99.81
2023-04-15T02:48:30.979Z,99.68
2023-04-15T02:51:33.493Z,99.14
2023-04-15T02:54:36.400Z,98.89
2023-04-15T02:57:39.443Z,99.07
2023-04-15T03:00:42.696Z,99.19
2023-04-15T03:03:45.661Z,99.09
2023-04-15T03:06:48.515Z,99.25
2023-04-15T03:09:51.148Z,99.58
2023-04-15T03:12:54.121Z,98.79
2023-04-15T03:15:57.064Z,98.45
2023-04-15T03:19:01.884Z,99.00
2023-04-15T03:22:04.910Z,99.28
2023-04-15T03:25:08.546Z,99.59
2023-04-15T03:28:11.242Z,99.54
2023-04-15T03:31:14.324Z,99.52
2023-04-15T03:34:16.910Z,99.64
2023-04-15T03:37:19.886Z,99.57
2023-04-15T03:40:22.601Z,99.62
2023-04-15T03:43:25.727Z,99.38
2023-04-15T03:46:28.380Z,99.52
2023-04-15T03:49:31.245Z,99.61
2023-04-15T03:52:34.315Z,99.93
2023-04-15T03:55:37.104Z,100.00
2023-04-15T03:58:39.800Z,100.00
2023-04-15T04:01:43.115Z,100.00
2023-04-15T04:04:46.498Z,99.75
2023-04-15T04:07:49.106Z,99.77
2023-04-15T04:10:52.445Z,99.61
2023-04-15T04:13:55.679Z,99.77
2023-04-15T04:16:58.618Z,99.75
2023-04-15T04:20:01.438Z,99.91
2023-04-15T04:23:04.530Z,99.05
2023-04-15T04:26:07.235Z,99.37
2023-04-15T04:29:10.051Z,99.64
2023-04-15T04:32:12.631Z,99.85
2023-04-15T04:35:15.789Z,99.92
2023-04-15T04:38:18.243Z,99.74
2023-04-15T04:41:21.052Z,99.39
2023-04-15T04:44:23.742Z,99.65
2023-04-15T04:47:27.267Z,99.39
2023-04-15T04:50:31.098Z,99.62
2023-04-15T04:53:33.989Z,100.00
2023-04-15T04:56:38.877Z,100.00
2023-04-15T04:59:42.049Z,100.00
2023-04-15T05:02:45.563Z,100.00
2023-04-15T05:05:49.392Z,100.00
2023-04-15T05:08:52.145Z,99.88
2023-04-15T05:11:55.019Z,99.90
2023-04-15T05:14:57.596Z,99.90
2023-04-15T05:18:00.555Z,99.89
2023-04-15T05:21:03.155Z,100.00
2023-04-15T05:24:07.056Z,100.00
2023-04-15T05:27:11.637Z,99.60
2023-04-15T05:30:14.600Z,99.77
2023-04-15T05:33:17.609Z,99.61
2023-04-15T05:36:21.108Z,99.21
2023-04-15T05:39:24.340Z,98.99
2023-04-15T05:42:27.334Z,98.87
2023-04-15T05:45:29.836Z,98.47
2023-04-15T05:48:32.783Z,97.94
2023-04-15T05:51:36.105Z,97.20
2023-04-15T05:54:39.394Z,96.83
2023-04-15T05:57:42.036Z,97.07
2023-04-15T06:00:46.272Z,96.62
2023-04-15T06:03:49.412Z,95.64
2023-04-15T06:06:52.297Z,96.23
2023-04-15T06:09:55.183Z,96.45
2023-04-15T06:12:57.769Z,95.97
2023-04-15T06:16:00.594Z,96.28
2023-04-15T06:19:03.728Z,96.68
2023-04-15T06:22:07.332Z,96.22
2023-04-15T06:25:10.107Z,96.55
2023-04-15T06:28:13.171Z,96.42
2023-04-15T06:31:16.049Z,95.99
2023-04-15T06:34:18.845Z,95.72
2023-04-15T06:37:22.191Z,95.78
2023-04-15T06:40:25.102Z,95.47
2023-04-15T06:43:27.653Z,95.67
2023-04-15T06:46:30.425Z,94.88
2023-04-15T06:49:33.783Z,95.39
2023-04-15T06:52:36.638Z,95.08
2023-04-15T06:55:40.527Z,93.37
2023-04-15T06:58:43.762Z,93.49
2023-04-15T07:01:46.626Z,92.24
2023-04-15T07:04:49.534Z,92.29
2023-04-15T07:07:53.247Z,92.26
2023-04-15T07:10:56.083Z,90.78
2023-04-15T07:13:58.905Z,91.26
2023-04-15T07:17:02.308Z,90.72
2023-04-15T07:20:05.283Z,90.41
2023-04-15T07:23:08.080Z,89.86
2023-04-15T07:26:11.192Z,89.54
2023-04-15T07:29:14.725Z,89.67
2023-04-15T07:32:18.164Z,87.94
2023-04-15T07:35:21.631Z,85.35
2023-04-15T07:38:24.131Z,87.04
2023-04-15T07:41:27.647Z,86.96
2023-04-15T07:44:31.689Z,85.37
2023-04-15T07:47:34.742Z,86.58
2023-04-15T07:50:37.355Z,85.37
2023-04-15T07:53:40.307Z,83.88
2023-04-15T07:56:42.828Z,83.22
2023-04-15T07:59:45.758Z,81.28
2023-04-15T08:02:48.526Z,79.60
2023-04-15T08:05:51.561Z,78.60
2023-04-15T08:08:57.172Z,75.70
2023-04-15T08:12:00.201Z,76.68
2023-04-15T08:15:03.753Z,75.77
2023-04-15T08:18:06.684Z,73.85
2023-04-15T08:21:09.476Z,73.91
2023-04-15T08:24:13.002Z,73.48
2023-04-15T08:27:15.696Z,72.48
2023-04-15T08:30:19.384Z,72.07
2023-04-15T08:33:22.044Z,71.88
2023-04-15T08:36:25.086Z,72.22
2023-04-15T08:39:28.313Z,73.24
2023-04-15T08:42:37.589Z,73.31
2023-04-15T08:45:40.151Z,71.58
2023-04-15T08:48:43.323Z,70.32
2023-04-15T08:51:45.902Z,69.46
2023-04-15T08:54:48.778Z,69.97
2023-04-15T08:57:51.417Z,67.65
2023-04-15T09:00:55.258Z,67.10
2023-04-15T09:03:59.524Z,66.55
2023-04-15T09:07:02.664Z,68.46
2023-04-15T09:10:05.769Z,67.48
2023-04-15T09:13:09.385Z,67.06
2023-04-15T09:16:11.916Z,66.41
2023-04-15T09:19:22.967Z,67.04
2023-04-15T09:22:32.434Z,69.01
2023-04-15T09:25:35.796Z,65.96
2023-04-15T09:28:43.538Z,65.15
2023-04-15T09:31:48.980Z,65.49
2023-04-15T09:34:51.757Z,65.36
2023-04-15T09:38:05.951Z,66.97
2023-04-15T09:41:18.676Z,59.34
2023-04-15T09:44:25.375Z,59.71
2023-04-15T09:47:29.345Z,60.62
2023-04-15T09:50:41.271Z,60.99
2023-04-15T09:53:43.873Z,59.57
2023-04-15T09:56:47.087Z,60.70
2023-04-15T09:59:50.182Z,59.92
2023-04-15T10:02:53.398Z,60.46
2023-04-15T10:05:59.910Z,59.54
2023-04-15T10:09:03.331Z,59.85
2023-04-15T10:12:06.290Z,60.75
2023-04-15T10:15:14.939Z,59.29
2023-04-15T10:18:21.633Z,59.52
2023-04-15T10:21:24.726Z,58.47
2023-04-15T10:25:08.140Z,58.66
2023-04-15T10:28:11.242Z,59.10
2023-04-15T10:31:17.605Z,58.27
2023-04-15T10:34:20.683Z,59.33
2023-04-15T10:37:36.940Z,60.68
2023-04-15T10:40:39.934Z,60.46
2023-04-15T10:44:02.987Z,60.52
2023-04-15T10:47:14.155Z,61.69
2023-04-15T10:50:19.179Z,64.06
2023-04-15T10:53:28.670Z,65.46
2023-04-15T10:56:31.853Z,62.60
2023-04-15T10:59:59.760Z,63.10
2023-04-15T11:03:09.992Z,63.47
2023-04-15T11:06:12.836Z,63.28
2023-04-15T11:09:33.308Z,63.30
2023-04-15T11:12:36.440Z,61.34
2023-04-15T11:15:47.011Z,62.53
2023-04-15T11:18:56.129Z,61.43
2023-04-15T11:22:07.310Z,61.55
2023-04-15T11:25:09.954Z,63.48
2023-04-15T11:28:13.985Z,65.76
2023-04-15T11:31:18.598Z,66.53
2023-04-15T11:34:25.608Z,68.48
2023-04-15T11:37:30.005Z,68.79
2023-04-15T11:40:35.871Z,67.27
2023-04-15T11:43:38.424Z,67.63
2023-04-15T11:46:41.293Z,67.70
2023-04-15T11:49:44.048Z,66.98
2023-04-15T11:52:54.849Z,65.86
2023-04-15T11:55:57.408Z,65.67
2023-04-15T11:59:00.306Z,63.12
2023-04-15T12:02:13.006Z,63.22
2023-04-15T12:05:17.359Z,63.48
2023-04-15T12:08:20.152Z,63.64
2023-04-15T12:11:52.947Z,63.60
2023-04-15T12:14:57.208Z,62.98
2023-04-15T12:18:00.536Z,63.17
2023-04-15T12:21:12.856Z,61.57
2023-04-15T12:24:15.887Z,62.14
2023-04-15T12:27:18.593Z,62.84
2023-04-15T12:30:21.504Z,63.62
2023-04-15T12:33:24.064Z,63.64
2023-04-15T12:36:28.566Z,63.04
2023-04-15T12:39:32.921Z,61.39
2023-04-15T12:42:36.255Z,62.08
2023-04-15T12:45:38.844Z,62.32
2023-04-15T12:48:41.948Z,63.17
2023-04-15T12:51:44.765Z,62.20
2023-04-15T12:54:47.594Z,63.24
2023-04-15T12:57:50.211Z,63.28
2023-04-15T13:00:55.454Z,63.69
2023-04-15T13:03:58.491Z,63.17
2023-04-15T13:07:01.972Z,63.66
2023-04-15T13:10:04.874Z,63.51
2023-04-15T13:13:08.599Z,62.69
2023-04-15T13:16:11.591Z,63.51
2023-04-15T13:19:14.856Z,61.91
2023-04-15T13:22:17.624Z,62.77
2023-04-15T13:25:20.524Z,62.01
2023-04-15T13:28:23.086Z,61.72
2023-04-15T13:31:26.365Z,61.77
2023-04-15T13:34:29.402Z,62.69
2023-04-15T13:37:32.756Z,62.44
2023-04-15T13:40:35.533Z,62.82
2023-04-15T13:43:38.823Z,62.56
2023-04-15T13:46:44.609Z,61.31
2023-04-15T13:49:47.520Z,61.71
2023-04-15T13:52:50.468Z,61.42
2023-04-15T13:55:53.428Z,61.81
2023-04-15T13:58:58.959Z,62.66
2023-04-15T14:02:02.277Z,63.58
2023-04-15T14:05:05.905Z,63.20
2023-04-15T14:08:08.573Z,64.87
2023-04-15T14:11:11.631Z,64.21
2023-04-15T14:14:17.113Z,63.98
2023-04-15T14:17:20.235Z,64.65
2023-04-15T14:20:22.934Z,65.53
2023-04-15T14:23:26.084Z,66.58
2023-04-15T14:26:28.557Z,66.67
2023-04-15T14:29:31.481Z,65.64
2023-04-15T14:32:34.112Z,66.31
2023-04-15T14:35:37.907Z,65.99
2023-04-15T14:38:41.078Z,66.09
2023-04-15T14:41:43.918Z,66.32
2023-04-15T14:44:46.636Z,66.75
2023-04-15T14:47:49.649Z,67.72
2023-04-15T14:50:52.877Z,66.82
2023-04-15T14:53:55.808Z,66.63
2023-04-15T14:56:58.814Z,65.81
2023-04-15T15:00:01.812Z,66.14
2023-04-15T15:03:12.505Z,67.18
2023-04-15T15:06:15.792Z,67.26
2023-04-15T15:09:23.769Z,67.47
2023-04-15T15:12:26.919Z,67.68
2023-04-15T15:15:29.618Z,66.42
2023-04-15T15:18:32.706Z,66.70
2023-04-15T15:21:35.324Z,66.02
2023-04-15T15:24:43.154Z,65.51
2023-04-15T15:27:45.830Z,63.68
2023-04-15T15:30:48.752Z,64.60
2023-04-15T15:33:51.808Z,63.53
2023-04-15T15:36:55.929Z,63.27
2023-04-15T15:39:58.777Z,63.68
2023-04-15T15:43:02.051Z,64.72
2023-04-15T15:46:04.826Z,64.62
2023-04-15T15:49:07.938Z,64.86
2023-04-15T15:52:11.325Z,64.48
2023-04-15T15:55:14.380Z,65.54
2023-04-15T15:58:17.554Z,64.30
2023-04-15T16:01:20.833Z,65.34
2023-04-15T16:04:23.903Z,65.69
2023-04-15T16:07:26.674Z,66.04
2023-04-15T16:10:29.557Z,66.93
2023-04-15T16:13:32.165Z,67.39
2023-04-15T16:16:35.350Z,67.59
2023-04-15T16:19:38.093Z,68.21
2023-04-15T16:22:40.935Z,68.09
2023-04-15T16:25:44.568Z,68.75
2023-04-15T16:28:47.634Z,69.16
2023-04-15T16:31:50.528Z,69.96
2023-04-15T16:34:53.818Z,70.04
2023-04-15T16:37:56.502Z,70.07
2023-04-15T16:41:00.840Z,71.15
2023-04-15T16:44:04.080Z,71.27
2023-04-15T16:47:09.046Z,71.69
2023-04-15T16:50:11.946Z,71.17
2023-04-15T16:53:15.721Z,71.66
2023-04-15T16:56:18.360Z,70.88
2023-04-15T16:59:22.025Z,71.59
2023-04-15T17:02:25.168Z,72.78
2023-04-15T17:05:28.474Z,73.71
2023-04-15T17:08:31.126Z,74.23
2023-04-15T17:11:35.356Z,75.56
2023-04-15T17:14:38.993Z,76.30
2023-04-15T17:17:47.155Z,77.00
2023-04-15T17:20:52.676Z,77.36
2023-04-15T17:23:56.974Z,78.17
2023-04-15T17:27:00.676Z,78.76
2023-04-15T17:30:08.684Z,78.87
2023-04-15T17:33:55.309Z,79.14
2023-04-15T17:36:35.169Z,79.21
2023-04-15T17:39:38.235Z,79.51
2023-04-15T17:42:44.144Z,80.08
2023-04-15T17:45:47.651Z,80.14
2023-04-15T17:48:51.118Z,80.26
2023-04-15T17:51:55.609Z,80.80
2023-04-15T17:54:59.014Z,80.48
2023-04-15T17:58:03.664Z,80.69
2023-04-15T18:01:14.774Z,80.16
2023-04-15T18:04:18.319Z,80.63
2023-04-15T18:07:21.320Z,80.66
2023-04-15T18:10:31.099Z,81.12
2023-04-15T18:13:34.063Z,81.46
2023-04-15T18:16:37.218Z,81.80
2023-04-15T18:19:40.832Z,82.91
2023-04-15T18:22:44.692Z,83.42
2023-04-15T18:25:47.699Z,83.12
2023-04-15T18:28:51.194Z,83.28
2023-04-15T18:31:55.062Z,83.62
2023-04-15T18:34:59.731Z,84.00
2023-04-15T18:38:02.840Z,84.32
2023-04-15T18:41:08.273Z,84.50
2023-04-15T18:44:12.756Z,85.22
2023-04-15T18:47:16.259Z,86.07
2023-04-15T18:50:19.410Z,86.36
2023-04-15T18:53:22.748Z,85.81
2023-04-15T18:56:26.145Z,85.79
2023-04-15T18:59:30.704Z,85.97
2023-04-15T19:02:34.306Z,86.14
2023-04-15T19:05:37.733Z,86.36
2023-04-15T19:08:42.600Z,86.45
2023-04-15T19:11:45.990Z,86.44
2023-04-15T19:14:49.063Z,86.61
2023-04-15T19:17:52.350Z,86.66
2023-04-15T19:20:56.061Z,87.02
2023-04-15T19:24:00.944Z,87.46
2023-04-15T19:27:04.155Z,87.42
2023-04-15T19:30:08.618Z,87.87
2023-04-15T19:33:12.532Z,87.63
2023-04-15T19:36:18.246Z,87.90
2023-04-15T19:39:21.140Z,89.06
2023-04-15T19:42:24.395Z,89.27
2023-04-15T19:45:27.339Z,89.53
2023-04-15T19:48:32.060Z,89.35
2023-04-15T19:51:36.327Z,89.42
2023-04-15T19:54:39.285Z,89.51
2023-04-15T19:57:42.264Z,89.39
2023-04-15T20:00:45.474Z,89.38
2023-04-15T20:03:49.354Z,89.44
2023-04-15T20:06:52.314Z,89.65
2023-04-15T20:09:56.061Z,89.94
2023-04-15T20:12:58.993Z,90.15
2023-04-15T20:16:02.318Z,90.81
2023-04-15T20:19:09.320Z,90.56
2023-04-15T20:22:12.375Z,90.73
2023-04-15T20:25:16.341Z,90.91
2023-04-15T20:28:19.460Z,90.78
2023-04-15T20:31:22.595Z,90.60
2023-04-15T20:34:25.735Z,90.75
2023-04-15T20:37:30.053Z,91.07
2023-04-15T20:40:36.411Z,91.52
2023-04-15T20:43:39.114Z,92.62
2023-04-15T20:46:41.932Z,93.09
2023-04-15T20:49:44.916Z,93.28
2023-04-15T20:52:47.867Z,93.36
2023-04-15T20:55:50.929Z,93.38
2023-04-15T20:58:54.173Z,93.42
2023-04-15T21:01:57.264Z,93.67
2023-04-15T21:05:00.493Z,93.45
2023-04-15T21:08:04.448Z,93.39
2023-04-15T21:11:07.280Z,93.25
2023-04-15T21:14:09.942Z,93.37
2023-04-15T21:17:12.919Z,93.17
2023-04-15T21:20:15.696Z,93.47
2023-04-15T21:23:18.581Z,93.22
2023-04-15T21:26:21.190Z,92.92
2023-04-15T21:29:24.338Z,92.82
2023-04-15T21:32:26.920Z,92.88
2023-04-15T21:35:30.551Z,92.82
2023-04-15T21:38:33.602Z,92.39
2023-04-15T21:41:39.379Z,92.62
2023-04-15T21:44:41.935Z,92.52
2023-04-15T21:47:56.872Z,92.39
2023-04-15T21:51:08.514Z,92.46
2023-04-15T21:54:11.861Z,92.49
2023-04-15T21:57:14.386Z,92.31
2023-04-15T22:00:17.537Z,92.63
2023-04-15T22:03:20.949Z,92.88
2023-04-15T22:06:23.728Z,93.01
2023-04-15T22:09:26.642Z,92.70
2023-04-15T22:12:29.095Z,93.48
2023-04-15T22:15:31.901Z,93.64
2023-04-15T22:18:34.450Z,94.51
2023-04-15T22:21:37.393Z,94.72
2023-04-15T22:24:41.087Z,94.67
2023-04-15T22:27:43.994Z,95.42
2023-04-15T22:30:46.649Z,94.78
2023-04-15T22:33:49.713Z,94.72
2023-04-15T22:36:52.653Z,94.94
2023-04-15T22:39:55.565Z,95.39
2023-04-15T22:42:58.136Z,95.53
2023-04-15T22:46:01.224Z,95.59
2023-04-15T22:49:07.948Z,95.66
2023-04-15T22:52:17.146Z,96.00
2023-04-15T22:55:26.234Z,96.28
2023-04-15T22:58:32.054Z,96.06
2023-04-15T23:01:35.016Z,96.91
2023-04-15T23:04:38.162Z,97.12
2023-04-15T23:07:40.771Z,97.48
2023-04-15T23:10:44.651Z,96.72
2023-04-15T23:13:47.585Z,96.59
2023-04-15T23:16:51.584Z,96.40
2023-04-15T23:19:54.181Z,96.28
2023-04-15T23:22:57.020Z,96.41
2023-04-15T23:26:01.374Z,96.21
2023-04-15T23:29:04.424Z,95.95
2023-04-15T23:32:06.923Z,96.60
2023-04-15T23:35:09.972Z,96.81
2023-04-15T23:38:12.534Z,96.73
2023-04-15T23:41:15.704Z,96.03
2023-04-15T23:44:20.339Z,95.23
2023-04-15T23:47:23.503Z,95.71
2023-04-15T23:50:27.919Z,95.84
2023-04-15T23:53:31.725Z,95.53
2023-04-15T23:56:34.276Z,95.13
2023-04-15T23:59:37.398Z,94.77
